Time;durP1;ratioP1;P1;durP2;ratioP2;P2;SDS_P1;SDS_P2;PMS_P1;PMS_P2;Temp;Humidity;BMP_temperature;BMP_pressure;BME280_temperature;BME280_humidity;BME280_pressure;Samples;Min_cycle;Max_cycle;Signal;HPM_P1;HPM_P2
2023/02/22 00:01:18;;;;;;;25.00;11.77;;;;;;;8.83;96.82;100904.97;5016430;28;20331;-75
2023/02/22 00:03:48;;;;;;;26.50;12.97;;;;;;;8.81;96.91;100898.88;5018368;28;20209;-74
2023/02/22 00:06:18;;;;;;;25.23;12.73;;;;;;;8.81;96.53;100898.03;5014108;28;20682;-74
2023/02/22 00:08:47;;;;;;;29.27;13.30;;;;;;;8.80;96.94;100894.50;5017297;28;20709;-74
2023/02/22 00:11:14;;;;;;;24.07;12.10;;;;;;;8.79;97.07;100906.06;5015077;28;20241;-73
2023/02/22 00:13:42;;;;;;;25.57;13.10;;;;;;;8.79;97.16;100898.09;5017205;28;20203;-75
2023/02/22 00:16:11;;;;;;;26.40;12.77;;;;;;;8.78;97.54;100899.03;5020251;28;20609;-74
2023/02/22 00:18:38;;;;;;;26.03;12.30;;;;;;;8.77;97.68;100892.03;5015138;28;20202;-74
2023/02/22 00:21:09;;;;;;;27.57;13.77;;;;;;;8.77;97.67;100894.69;5020564;28;20241;-75
2023/02/22 00:23:42;;;;;;;24.20;11.83;;;;;;;8.75;98.00;100888.59;5017481;28;20213;-75
2023/02/22 00:26:09;;;;;;;25.90;12.73;;;;;;;8.76;97.82;100894.75;5021143;28;20659;-75
2023/02/22 00:28:36;;;;;;;26.03;12.83;;;;;;;8.74;97.71;100894.84;5015438;28;20322;-76
2023/02/22 00:31:04;;;;;;;27.03;12.43;;;;;;;8.74;98.12;100896.63;4963713;28;1731938;-75
2023/02/22 00:33:30;;;;;;;22.13;11.53;;;;;;;8.73;97.88;100893.13;5021999;28;20206;-75
2023/02/22 00:35:57;;;;;;;25.67;12.53;;;;;;;8.72;97.97;100888.75;5013399;28;20588;-75
2023/02/22 00:38:24;;;;;;;25.03;12.50;;;;;;;8.73;97.48;100887.81;5022503;28;20202;-74
2023/02/22 00:40:52;;;;;;;23.43;11.50;;;;;;;8.73;98.18;100890.47;5023298;28;20230;-76
2023/02/22 00:43:18;;;;;;;25.07;11.63;;;;;;;8.73;98.08;100881.66;5025490;28;20202;-75
2023/02/22 00:45:44;;;;;;;23.60;11.00;;;;;;;8.73;98.06;100874.53;5023062;28;20226;-75
2023/02/22 00:48:12;;;;;;;25.47;12.37;;;;;;;8.74;97.62;100875.41;5020589;28;20414;-75
2023/02/22 00:50:38;;;;;;;22.40;11.17;;;;;;;8.74;97.78;100875.41;5016357;28;20310;-75
2023/02/22 00:53:08;;;;;;;25.47;12.03;;;;;;;8.74;97.80;100868.28;5022408;28;20221;-74
2023/02/22 00:55:37;;;;;;;20.53;11.10;;;;;;;8.74;97.64;100875.41;5017977;28;20211;-75
2023/02/22 00:58:06;;;;;;;21.87;11.97;;;;;;;8.73;97.99;100863.06;5023916;28;20307;-75
2023/02/22 01:00:35;;;;;;;21.23;12.03;;;;;;;8.72;97.91;100867.50;5023389;28;20245;-74
2023/02/22 01:03:01;;;;;;;19.83;11.17;;;;;;;8.70;98.25;100862.28;5021175;28;20587;-74
2023/02/22 01:05:29;;;;;;;22.27;11.50;;;;;;;8.70;98.02;100858.75;5024938;28;20595;-74
2023/02/22 01:07:58;;;;;;;24.27;12.63;;;;;;;8.70;98.26;100864.94;5030089;28;20205;-74
2023/02/22 01:10:28;;;;;;;19.23;11.00;;;;;;;8.69;98.18;100855.25;5020753;28;20229;-74
2023/02/22 01:12:56;;;;;;;22.17;10.90;;;;;;;8.68;97.76;100860.63;5016354;28;20221;-74
2023/02/22 01:15:27;;;;;;;24.30;11.70;;;;;;;8.67;97.96;100853.59;5028350;28;20213;-75
2023/02/22 01:17:54;;;;;;;23.60;10.83;;;;;;;8.65;97.57;100851.03;5025017;28;20249;-74
2023/02/22 01:20:22;;;;;;;20.00;10.50;;;;;;;8.65;98.26;100850.16;5025315;28;20606;-75
2023/02/22 01:22:52;;;;;;;24.40;11.70;;;;;;;8.62;98.17;100843.22;5027296;28;20303;-74
2023/02/22 01:25:20;;;;;;;23.07;11.30;;;;;;;8.62;98.26;100842.34;5030092;28;20213;-74
2023/02/22 01:27:49;;;;;;;20.23;10.17;;;;;;;8.62;97.80;100842.34;5028022;28;20565;-75
2023/02/22 01:30:16;;;;;;;20.67;11.23;;;;;;;8.61;98.09;100840.63;5029380;28;20807;-75
2023/02/22 01:32:44;;;;;;;17.10;9.67;;;;;;;8.59;97.62;100845.19;5028826;28;20708;-75
2023/02/22 01:35:14;;;;;;;18.83;10.53;;;;;;;8.55;97.29;100840.97;5029233;28;20561;-74
2023/02/22 01:37:42;;;;;;;18.97;10.63;;;;;;;8.54;97.62;100833.94;5024300;28;20210;-75
2023/02/22 01:40:15;;;;;;;18.40;9.97;;;;;;;8.51;97.47;100837.63;5026738;28;20233;-75
2023/02/22 01:42:41;;;;;;;21.53;10.73;;;;;;;8.49;97.70;100833.31;5020502;28;20212;-74
2023/02/22 01:45:43;;;;;;;21.77;10.53;;;;;;;8.46;97.57;100830.81;5012946;28;20215;-75
2023/02/22 01:48:18;;;;;;;17.33;9.33;;;;;;;8.43;96.82;100825.66;4957885;28;20766;-75
2023/02/22 01:50:48;;;;;;;20.33;10.37;;;;;;;8.40;96.53;100818.75;5008794;28;20725;-75
2023/02/22 01:53:17;;;;;;;16.77;9.23;;;;;;;8.37;97.24;100818.03;5019979;28;20214;-75
2023/02/22 01:55:45;;;;;;;15.90;9.50;;;;;;;8.32;97.29;100823.56;5013331;28;20218;-76
2023/02/22 01:58:13;;;;;;;14.57;8.73;;;;;;;8.29;97.25;100816.59;5017811;28;20213;-75
2023/02/22 02:00:40;;;;;;;17.23;9.57;;;;;;;8.27;96.81;100818.47;5024851;28;20226;-74
2023/02/22 02:03:09;;;;;;;15.57;8.87;;;;;;;8.24;96.51;100809.81;5025693;28;20210;-74
2023/02/22 02:05:38;;;;;;;14.83;8.40;;;;;;;8.21;96.41;100818.78;5014471;28;20250;-75
2023/02/22 02:08:13;;;;;;;15.33;8.87;;;;;;;8.18;96.34;100812.78;5018966;28;20234;-74
2023/02/22 02:10:41;;;;;;;16.40;8.90;;;;;;;8.15;96.82;100815.59;5016524;28;20647;-74
2023/02/22 02:13:08;;;;;;;15.93;8.97;;;;;;;8.10;96.32;100814.94;5022708;28;20233;-74
2023/02/22 02:15:35;;;;;;;16.07;8.50;;;;;;;8.04;95.93;100821.44;5022799;28;20681;-75
2023/02/22 02:18:05;;;;;;;16.90;9.20;;;;;;;7.96;94.90;100813.00;5018044;28;20215;-75
2023/02/22 02:20:42;;;;;;;17.00;9.00;;;;;;;7.88;94.91;100813.38;5016218;28;20674;-75
2023/02/22 02:23:25;;;;;;;20.03;10.13;;;;;;;7.81;95.16;100814.63;5022445;28;20215;-74
2023/02/22 02:26:31;;;;;;;18.20;9.83;;;;;;;7.76;95.32;100811.31;5011101;28;20210;-75
2023/02/22 02:29:26;;;;;;;21.33;10.07;;;;;;;7.74;95.21;100801.72;5017140;28;20218;-76
2023/02/22 02:32:22;;;;;;;17.37;9.77;;;;;;;7.72;95.55;100808.91;5004356;28;20242;-75
2023/02/22 02:34:54;;;;;;;21.77;10.23;;;;;;;7.70;95.64;100800.19;5013854;28;20580;-75
2023/02/22 02:37:30;;;;;;;18.77;9.87;;;;;;;7.69;96.39;100806.41;5017162;28;20814;-75
2023/02/22 02:40:05;;;;;;;19.33;9.80;;;;;;;7.65;96.13;100803.91;5021051;28;20198;-76
2023/02/22 02:42:38;;;;;;;14.47;8.40;;;;;;;7.63;95.88;100796.97;5018794;28;20265;-72
2023/02/22 02:45:09;;;;;;;15.53;8.30;;;;;;;7.57;95.40;100790.16;5021488;28;20207;-75
2023/02/22 02:47:42;;;;;;;15.83;7.93;;;;;;;7.47;94.38;100778.31;5024634;28;20301;-75
2023/02/22 02:50:12;;;;;;;15.43;7.57;;;;;;;7.37;93.14;100790.25;5017779;28;20237;-74
2023/02/22 02:52:40;;;;;;;12.17;7.23;;;;;;;7.24;93.14;100791.78;5020619;28;20295;-74
2023/02/22 02:55:10;;;;;;;14.03;7.90;;;;;;;7.16;93.41;100783.34;5019179;28;20254;-74
2023/02/22 02:57:37;;;;;;;16.13;8.70;;;;;;;7.11;93.51;100791.50;5020831;28;20210;-74
2023/02/22 03:00:21;;;;;;;20.93;9.23;;;;;;;7.09;93.33;100787.22;5011379;28;20223;-74
2023/02/22 03:02:57;;;;;;;19.87;9.33;;;;;;;7.07;94.25;100789.94;5024313;28;20206;-74
2023/02/22 03:05:43;;;;;;;17.40;8.70;;;;;;;7.06;94.64;100782.91;5022037;28;20213;-74
2023/02/22 03:08:14;;;;;;;13.07;7.20;;;;;;;7.02;94.16;100777.81;5016503;28;20593;-74
2023/02/22 03:10:55;;;;;;;11.80;6.53;;;;;;;6.91;93.51;100784.50;5020899;28;20237;-74
2023/02/22 03:13:30;;;;;;;10.20;6.47;;;;;;;6.80;92.87;100777.97;5021231;28;20203;-74
2023/02/22 03:16:04;;;;;;;12.50;6.97;;;;;;;6.68;92.17;100768.78;5023588;28;20213;-74
2023/02/22 03:18:44;;;;;;;11.67;6.33;;;;;;;6.61;92.83;100775.31;5023741;28;20206;-74
2023/02/22 03:21:21;;;;;;;12.67;6.67;;;;;;;6.56;93.20;100779.94;5018961;28;20717;-74
2023/02/22 03:23:56;;;;;;;10.17;5.50;;;;;;;6.46;92.79;100766.25;5025559;28;20206;-75
2023/02/22 03:26:28;;;;;;;9.77;6.00;;;;;;;6.42;93.63;100772.63;5023106;28;20214;-74
2023/02/22 03:28:56;;;;;;;11.87;6.10;;;;;;;6.38;93.75;100764.88;5012933;28;20234;-74
2023/02/22 03:31:27;;;;;;;13.83;6.60;;;;;;;6.36;94.93;100767.59;5025163;28;20597;-74
2023/02/22 03:34:00;;;;;;;10.13;5.50;;;;;;;6.37;95.17;100761.38;5021307;28;20211;-73
2023/02/22 03:36:30;;;;;;;12.60;6.13;;;;;;;6.39;96.03;100750.72;5021893;28;20209;-74
2023/02/22 03:38:58;;;;;;;11.73;6.70;;;;;;;6.43;96.99;100753.19;5026538;28;20211;-74
2023/02/22 03:41:28;;;;;;;15.47;7.60;;;;;;;6.49;96.69;100750.22;5027099;28;20218;-75
2023/02/22 03:44:00;;;;;;;14.13;8.37;;;;;;;6.55;97.72;100754.41;5017102;28;20221;-74
2023/02/22 03:46:29;;;;;;;14.73;7.97;;;;;;;6.58;97.72;100744.53;5026085;28;20225;-74
2023/02/22 03:49:02;;;;;;;17.70;8.63;;;;;;;6.63;98.89;100754.06;5025380;28;20250;-74
2023/02/22 03:51:29;;;;;;;22.90;10.53;;;;;;;6.66;98.95;100752.13;5021141;28;20718;-74
2023/02/22 03:53:57;;;;;;;22.17;10.73;;;;;;;6.69;99.72;100757.28;5023389;28;20202;-74
2023/02/22 03:56:34;;;;;;;22.73;11.07;;;;;;;6.73;99.78;100748.28;5023958;28;20205;-74
2023/02/22 03:59:02;;;;;;;28.47;11.73;;;;;;;6.78;100.00;100750.72;5022025;28;20755;-74
2023/02/22 04:01:28;;;;;;;28.83;13.10;;;;;;;6.83;100.00;100741.59;5015885;28;20223;-74
2023/02/22 04:03:55;;;;;;;28.20;14.03;;;;;;;6.86;100.00;100736.19;5015869;28;20214;-74
2023/02/22 04:06:22;;;;;;;27.13;12.60;;;;;;;6.93;100.00;100740.28;5024243;28;20225;-74
2023/02/22 04:08:49;;;;;;;28.20;13.60;;;;;;;6.96;100.00;100740.13;5021346;28;20584;-75
2023/02/22 04:11:15;;;;;;;29.83;13.13;;;;;;;7.02;100.00;100740.75;5017445;28;20222;-74
2023/02/22 04:13:42;;;;;;;27.63;13.10;;;;;;;7.07;100.00;100744.03;5014128;28;20207;-74
2023/02/22 04:16:08;;;;;;;25.20;12.47;;;;;;;7.09;100.00;100734.25;5019789;28;20207;-74
2023/02/22 04:18:35;;;;;;;27.83;11.90;;;;;;;7.11;100.00;100733.25;5017853;28;20222;-74
2023/02/22 04:21:02;;;;;;;33.07;13.90;;;;;;;7.15;100.00;100739.25;5029134;28;20943;-75
2023/02/22 04:23:29;;;;;;;30.40;13.33;;;;;;;7.16;100.00;100735.69;5018324;28;20225;-74
2023/02/22 04:25:56;;;;;;;23.17;11.60;;;;;;;7.18;100.00;100731.13;5026613;28;20214;-74
2023/02/22 04:28:22;;;;;;;26.57;11.67;;;;;;;7.19;100.00;100732.84;5021359;28;20199;-74
2023/02/22 04:30:49;;;;;;;25.07;11.37;;;;;;;7.19;100.00;100735.50;5022619;28;20226;-74
2023/02/22 04:33:15;;;;;;;27.60;12.27;;;;;;;7.19;100.00;100728.41;5019643;28;20213;-74
2023/02/22 04:35:42;;;;;;;27.27;12.47;;;;;;;7.19;100.00;100731.06;5013545;28;20245;-74
2023/02/22 04:38:09;;;;;;;24.80;12.03;;;;;;;7.19;100.00;100730.22;5021939;28;20210;-74
2023/02/22 04:40:37;;;;;;;22.77;12.30;;;;;;;7.19;100.00;100735.50;5015850;28;20218;-74
2023/02/22 04:43:04;;;;;;;21.40;11.70;;;;;;;7.18;100.00;100728.50;5018912;28;20210;-74
2023/02/22 04:45:30;;;;;;;23.97;11.70;;;;;;;7.17;100.00;100730.28;5022087;28;20693;-75
2023/02/22 04:47:57;;;;;;;23.43;11.53;;;;;;;7.17;100.00;100724.97;5023617;28;20860;-75
2023/02/22 04:50:24;;;;;;;25.77;12.87;;;;;;;7.15;100.00;100723.38;5016661;28;20253;-74
2023/02/22 04:52:50;;;;;;;24.10;10.63;;;;;;;7.15;100.00;100726.00;5023774;28;20202;-74
2023/02/22 04:55:17;;;;;;;22.23;11.27;;;;;;;7.15;100.00;100729.53;5021394;28;20202;-74
2023/02/22 04:57:45;;;;;;;25.07;11.57;;;;;;;7.14;100.00;100721.66;5013036;28;20217;-74
2023/02/22 05:00:17;;;;;;;21.07;10.90;;;;;;;7.13;100.00;100722.59;5019021;28;20225;-74
2023/02/22 05:02:43;;;;;;;23.37;10.80;;;;;;;7.12;100.00;100728.81;5017315;28;20214;-74
2023/02/22 05:05:10;;;;;;;22.67;11.07;;;;;;;7.12;100.00;100728.81;5016490;28;20218;-74
2023/02/22 05:07:36;;;;;;;22.13;10.70;;;;;;;7.11;100.00;100727.09;5019600;28;20206;-74
2023/02/22 05:10:03;;;;;;;26.10;10.97;;;;;;;7.10;100.00;100726.22;5015653;28;20238;-74
2023/02/22 05:12:29;;;;;;;23.67;11.13;;;;;;;7.10;100.00;100731.53;5013914;28;20214;-74
2023/02/22 05:14:57;;;;;;;23.93;11.67;;;;;;;7.10;100.00;100730.66;5018118;28;20206;-74
2023/02/22 05:17:23;;;;;;;23.33;11.70;;;;;;;7.10;100.00;100731.53;5017492;28;20730;-74
2023/02/22 05:19:50;;;;;;;22.60;11.37;;;;;;;7.10;100.00;100722.72;5022633;28;20617;-74
2023/02/22 05:22:16;;;;;;;24.23;11.37;;;;;;;7.10;100.00;100725.38;5017669;28;20206;-74
2023/02/22 05:24:43;;;;;;;21.27;11.10;;;;;;;7.10;100.00;100723.59;5020120;28;20203;-74
2023/02/22 05:27:10;;;;;;;27.53;11.57;;;;;;;7.10;100.00;100726.22;5017153;28;20234;-74
2023/02/22 05:29:37;;;;;;;26.93;12.10;;;;;;;7.10;100.00;100718.28;5021507;28;20232;-74
2023/02/22 05:32:06;;;;;;;23.37;11.17;;;;;;;7.12;100.00;100726.16;5019759;28;20245;-75
2023/02/22 05:34:32;;;;;;;21.50;9.57;;;;;;;7.11;100.00;100717.34;5015917;28;20208;-74
2023/02/22 05:36:59;;;;;;;19.70;8.53;;;;;;;7.10;100.00;100718.28;5023712;28;20199;-74
2023/02/22 05:39:25;;;;;;;21.60;10.60;;;;;;;7.06;100.00;100719.34;5015594;28;20218;-74
2023/02/22 05:41:52;;;;;;;17.70;9.20;;;;;;;7.04;100.00;100710.63;5011029;28;20729;-74
2023/02/22 05:44:18;;;;;;;17.93;9.77;;;;;;;7.00;100.00;100711.69;5023267;28;20210;-74
2023/02/22 05:46:45;;;;;;;17.77;9.13;;;;;;;6.97;100.00;100718.03;5015887;28;20207;-74
2023/02/22 05:49:13;;;;;;;16.40;9.30;;;;;;;6.95;100.00;100713.72;5024781;28;20199;-75
2023/02/22 05:51:39;;;;;;;23.00;9.63;;;;;;;6.90;100.00;100713.94;5018876;28;20233;-74
2023/02/22 05:54:05;;;;;;;26.13;11.33;;;;;;;6.90;100.00;100719.22;5017568;28;20207;-74
2023/02/22 05:56:32;;;;;;;23.97;11.53;;;;;;;6.89;100.00;100714.84;5017016;28;20210;-74
2023/02/22 05:58:59;;;;;;;25.77;12.13;;;;;;;6.87;100.00;100711.41;5020790;28;20206;-74
2023/02/22 06:01:26;;;;;;;26.07;11.37;;;;;;;6.86;100.00;100711.50;5018957;28;20265;-74
2023/02/22 06:03:52;;;;;;;20.83;10.00;;;;;;;6.85;100.00;100710.63;5016454;28;20765;-74
2023/02/22 06:06:20;;;;;;;23.47;10.93;;;;;;;6.84;100.00;100705.41;5020209;28;20584;-74
2023/02/22 06:08:47;;;;;;;19.03;9.53;;;;;;;6.85;100.00;100708.00;5021529;28;20685;-74
2023/02/22 06:11:14;;;;;;;24.30;11.23;;;;;;;6.84;100.00;100703.63;5016815;28;20230;-74
2023/02/22 06:13:40;;;;;;;22.73;11.77;;;;;;;6.85;100.00;100705.34;5021007;28;20689;-74
2023/02/22 06:16:07;;;;;;;22.93;10.10;;;;;;;6.86;100.00;100701.75;5019284;28;20229;-75
2023/02/22 06:18:34;;;;;;;24.70;11.27;;;;;;;6.88;100.00;100702.56;5023248;28;20210;-75
2023/02/22 06:21:00;;;;;;;24.87;11.63;;;;;;;6.90;100.00;100705.13;5023524;28;20226;-74
2023/02/22 06:23:28;;;;;;;27.10;11.70;;;;;;;6.91;100.00;100709.50;5017678;28;20203;-75
2023/02/22 06:25:55;;;;;;;27.77;12.17;;;;;;;6.93;100.00;100703.19;5026829;28;20206;-75
2023/02/22 06:28:22;;;;;;;26.47;11.50;;;;;;;6.94;100.00;100694.31;5017153;28;20203;-74
2023/02/22 06:30:49;;;;;;;27.80;12.60;;;;;;;6.95;100.00;100698.69;5017996;28;20226;-75
2023/02/22 06:33:15;;;;;;;34.87;13.97;;;;;;;6.95;100.00;100697.84;5020993;28;20213;-75
2023/02/22 06:35:41;;;;;;;30.73;13.57;;;;;;;6.94;100.00;100699.63;5026211;28;20206;-75
2023/02/22 06:38:08;;;;;;;28.33;12.27;;;;;;;6.96;100.00;100694.25;5024889;28;20218;-74
2023/02/22 06:40:36;;;;;;;25.83;11.70;;;;;;;6.94;100.00;100694.31;5025807;28;20233;-75
2023/02/22 06:43:02;;;;;;;21.03;10.40;;;;;;;6.95;100.00;100703.13;5023044;28;20210;-75
2023/02/22 06:45:29;;;;;;;19.23;9.20;;;;;;;6.92;100.00;100698.84;5026247;28;20793;-75
2023/02/22 06:47:55;;;;;;;15.40;7.93;;;;;;;6.89;100.00;100700.75;5021387;28;20236;-74
2023/02/22 06:50:23;;;;;;;14.77;7.50;;;;;;;6.85;100.00;100696.53;5027117;28;20237;-75
2023/02/22 06:52:50;;;;;;;17.50;8.63;;;;;;;6.80;100.00;100699.44;5026034;28;20206;-75
2023/02/22 06:55:18;;;;;;;19.20;8.83;;;;;;;6.79;100.00;100700.34;5019918;28;20203;-76
2023/02/22 06:57:46;;;;;;;22.53;9.87;;;;;;;6.78;100.00;100700.41;5024185;28;20305;-75
2023/02/22 07:00:16;;;;;;;18.83;8.43;;;;;;;6.77;100.00;100702.22;5019505;28;20214;-75
2023/02/22 07:02:43;;;;;;;20.03;9.50;;;;;;;6.76;100.00;100708.44;5024209;28;20590;-75
2023/02/22 07:05:11;;;;;;;18.87;8.10;;;;;;;6.74;100.00;100701.50;5018476;28;20207;-75
2023/02/22 07:07:38;;;;;;;13.63;7.47;;;;;;;6.72;100.00;100706.00;5026823;28;20234;-74
2023/02/22 07:10:07;;;;;;;15.70;8.03;;;;;;;6.70;100.00;100708.72;5026929;28;20257;-75
2023/02/22 07:12:33;;;;;;;17.23;7.80;;;;;;;6.70;100.00;100703.41;5019862;28;20210;-75
2023/02/22 07:15:01;;;;;;;18.37;8.33;;;;;;;6.70;100.00;100700.75;5023641;28;20210;-75
2023/02/22 07:17:27;;;;;;;13.83;7.87;;;;;;;6.69;100.00;100714.94;5027176;28;20213;-74
2023/02/22 07:19:54;;;;;;;15.77;8.20;;;;;;;6.70;100.00;100711.34;5018603;28;20217;-75
2023/02/22 07:22:20;;;;;;;20.37;9.17;;;;;;;6.72;100.00;100713.94;5022299;28;20676;-76
2023/02/22 07:24:47;;;;;;;16.40;7.53;;;;;;;6.72;100.00;100714.78;5017138;28;20217;-75
2023/02/22 07:27:13;;;;;;;20.00;8.53;;;;;;;6.75;100.00;100709.34;5021094;28;20213;-75
2023/02/22 07:29:42;;;;;;;20.63;9.67;;;;;;;6.76;100.00;100708.44;5025510;28;20205;-74
2023/02/22 07:32:10;;;;;;;18.70;9.23;;;;;;;6.79;100.00;100705.66;5027115;28;20405;-76
2023/02/22 07:34:36;;;;;;;19.73;9.40;;;;;;;6.80;100.00;100707.38;5023044;28;20214;-75
2023/02/22 07:37:03;;;;;;;20.87;9.07;;;;;;;6.83;100.00;100712.50;5020676;28;20494;-75
2023/02/22 07:39:30;;;;;;;20.80;9.17;;;;;;;6.87;100.00;100718.50;5022412;28;20206;-75
2023/02/22 07:41:56;;;;;;;17.40;9.00;;;;;;;6.88;100.00;100707.84;5022051;28;20222;-76
2023/02/22 07:44:23;;;;;;;21.83;9.13;;;;;;;6.90;100.00;100713.06;5023803;28;20198;-76
2023/02/22 07:46:49;;;;;;;21.63;9.67;;;;;;;6.92;100.00;100705.91;5023614;28;20210;-75
2023/02/22 07:49:18;;;;;;;17.57;9.40;;;;;;;6.93;100.00;100705.84;5027812;28;20236;-75
2023/02/22 07:51:44;;;;;;;20.20;9.87;;;;;;;6.96;100.00;100708.34;5024059;28;20652;-75
2023/02/22 07:54:11;;;;;;;18.93;8.97;;;;;;;6.99;100.00;100707.31;5018998;28;20199;-75
2023/02/22 07:56:44;;;;;;;17.20;9.27;;;;;;;7.03;100.00;100708.03;5022914;28;20202;-75
2023/02/22 07:59:10;;;;;;;18.20;9.63;;;;;;;7.08;100.00;100703.41;5016252;28;20563;-75
2023/02/22 08:01:37;;;;;;;19.23;9.83;;;;;;;7.14;100.00;100708.41;5024467;28;20733;-75
2023/02/22 08:04:03;;;;;;;16.03;8.70;;;;;;;7.17;100.00;100695.84;5022411;28;20218;-75
2023/02/22 08:06:31;;;;;;;15.10;8.33;;;;;;;7.21;100.00;100700.06;5022514;28;20289;-75
2023/02/22 08:08:58;;;;;;;22.07;9.50;;;;;;;7.27;100.00;100696.28;5022467;28;20207;-75
2023/02/22 08:11:25;;;;;;;19.30;9.70;;;;;;;7.35;100.00;100694.09;5017741;28;20238;-74
2023/02/22 08:13:51;;;;;;;19.67;10.13;;;;;;;7.44;100.00;100688.34;5022446;28;20249;-75
2023/02/22 08:16:18;;;;;;;17.83;10.77;;;;;;;7.54;100.00;100694.91;5023209;28;20580;-75
2023/02/22 08:18:44;;;;;;;24.33;11.33;;;;;;;7.66;100.00;100691.66;5017587;28;20207;-75
2023/02/22 08:21:10;;;;;;;22.50;11.17;;;;;;;7.77;100.00;100691.09;5024232;28;20719;-75
2023/02/22 08:23:38;;;;;;;21.90;11.70;;;;;;;7.88;100.00;100683.44;5019307;28;20579;-75
2023/02/22 08:26:06;;;;;;;22.43;11.13;;;;;;;7.98;100.00;100687.34;5020622;28;20213;-76
2023/02/22 08:28:32;;;;;;;22.50;11.73;;;;;;;8.09;100.00;100686.75;5021719;28;20198;-76
2023/02/22 08:30:59;;;;;;;22.53;12.17;;;;;;;8.21;100.00;100686.13;5013857;28;20230;-75
2023/02/22 08:33:25;;;;;;;21.87;12.70;;;;;;;8.33;100.00;100685.50;5024828;28;20666;-76
2023/02/22 08:35:52;;;;;;;23.20;12.70;;;;;;;8.46;100.00;100677.75;5024073;28;20581;-76
2023/02/22 08:38:22;;;;;;;21.23;11.97;;;;;;;8.61;100.00;100684.00;5025736;28;20237;-76
2023/02/22 08:40:50;;;;;;;23.33;12.00;;;;;;;8.71;100.00;100679.91;5020432;28;20218;-76
2023/02/22 08:43:16;;;;;;;21.90;11.37;;;;;;;8.82;100.00;100674.00;5022817;28;20218;-76
2023/02/22 08:45:45;;;;;;;18.60;12.10;;;;;;;8.90;100.00;100677.97;5026473;28;20210;-75
2023/02/22 08:48:12;;;;;;;20.47;11.87;;;;;;;8.99;100.00;100677.44;5025528;28;20704;-76
2023/02/22 08:50:40;;;;;;;22.27;12.30;;;;;;;9.08;100.00;100675.22;5023421;28;20607;-76
2023/02/22 08:53:08;;;;;;;21.90;11.73;;;;;;;9.16;100.00;100670.31;5022923;28;20206;-76
2023/02/22 08:55:36;;;;;;;23.73;12.50;;;;;;;9.27;100.00;100673.22;5017759;28;20226;-76
2023/02/22 08:58:08;;;;;;;19.77;11.63;;;;;;;9.38;100.00;100676.09;5016580;28;20213;-76
2023/02/22 09:00:35;;;;;;;21.90;11.57;;;;;;;9.51;100.00;100663.78;5024982;28;20253;-76
2023/02/22 09:03:03;;;;;;;19.20;11.17;;;;;;;9.62;100.00;100660.53;5020780;28;20284;-76
2023/02/22 09:05:30;;;;;;;16.07;9.87;;;;;;;9.74;100.00;100657.13;5017540;28;20234;-76
2023/02/22 09:07:56;;;;;;;21.13;11.40;;;;;;;9.88;100.00;100664.28;5022243;28;20269;-76
2023/02/22 09:10:26;;;;;;;18.47;11.00;;;;;;;9.97;100.00;100656.59;5020080;28;20225;-76
2023/02/22 09:12:54;;;;;;;18.77;11.43;;;;;;;10.09;100.00;100652.34;5023065;28;20206;-76
2023/02/22 09:15:22;;;;;;;23.70;11.60;;;;;;;10.17;100.00;100655.41;5022778;28;20746;-76
2023/02/22 09:17:49;;;;;;;19.43;11.97;;;;;;;10.26;99.71;100651.31;5019254;28;20205;-75
2023/02/22 09:20:18;;;;;;;18.20;11.03;;;;;;;10.33;98.96;100653.53;5025170;28;20233;-76
2023/02/22 09:22:45;;;;;;;15.60;10.40;;;;;;;10.41;97.65;100651.22;5026964;28;20206;-76
2023/02/22 09:25:12;;;;;;;16.87;10.50;;;;;;;10.45;96.63;100641.25;5023440;28;20203;-76
2023/02/22 09:27:39;;;;;;;18.97;10.67;;;;;;;10.53;95.79;100646.97;5027884;28;20210;-76
2023/02/22 09:30:10;;;;;;;19.37;11.13;;;;;;;10.58;94.84;100649.31;5019254;28;20246;-76
2023/02/22 09:32:38;;;;;;;19.87;11.17;;;;;;;10.63;94.16;100642.75;5025700;28;20254;-76
2023/02/22 09:35:07;;;;;;;16.83;11.10;;;;;;;10.68;93.44;100639.78;5019222;28;20226;-76
2023/02/22 09:37:33;;;;;;;19.80;11.43;;;;;;;10.70;92.77;100633.41;5028566;28;20253;-76
2023/02/22 09:40:00;;;;;;;19.83;11.17;;;;;;;10.70;91.84;100638.75;5032692;28;20234;-76
2023/02/22 09:42:32;;;;;;;18.73;10.50;;;;;;;10.74;91.55;100640.28;5026405;28;20226;-76
2023/02/22 09:45:11;;;;;;;16.37;11.27;;;;;;;10.76;91.05;100641.00;5021197;28;20198;-76
2023/02/22 09:47:45;;;;;;;18.30;10.83;;;;;;;10.81;90.67;100635.38;5020821;28;20727;-76
2023/02/22 09:50:15;;;;;;;19.10;11.67;;;;;;;10.84;90.54;100637.00;5019852;28;20276;-76
2023/02/22 09:52:52;;;;;;;17.67;11.20;;;;;;;10.88;90.13;100628.72;5025921;28;20251;-76
2023/02/22 09:55:29;;;;;;;17.97;11.77;;;;;;;10.93;90.18;100628.38;5020922;28;20194;-76
2023/02/22 09:58:00;;;;;;;16.27;10.30;;;;;;;10.99;89.79;100625.34;5020670;28;20210;-76
2023/02/22 10:00:32;;;;;;;17.93;11.37;;;;;;;11.03;89.52;100630.38;5025624;28;20223;-76
2023/02/22 10:03:16;;;;;;;25.67;14.50;;;;;;;11.08;89.21;100633.59;5030494;28;20206;-76
2023/02/22 10:05:49;;;;;;;20.10;12.00;;;;;;;11.11;88.74;100628.03;5019052;28;20206;-76
2023/02/22 10:08:18;;;;;;;21.37;11.67;;;;;;;11.17;88.36;100625.94;5027932;28;20206;-76
2023/02/22 10:10:51;;;;;;;21.03;11.43;;;;;;;11.20;87.99;100628.41;5027226;28;20254;-76
2023/02/22 10:13:27;;;;;;;19.80;12.03;;;;;;;11.24;87.90;100621.91;5026743;28;20259;-76
2023/02/22 10:16:00;;;;;;;22.30;12.33;;;;;;;11.27;87.65;100622.56;5024896;28;20206;-76
2023/02/22 10:18:58;;;;;;;18.83;11.97;;;;;;;11.33;87.31;100626.63;5021703;28;20570;-76
2023/02/22 10:21:56;;;;;;;15.83;10.47;;;;;;;11.38;87.17;100622.69;5021739;28;20344;-75
2023/02/22 10:24:37;;;;;;;16.07;10.37;;;;;;;11.45;86.61;100615.16;5027645;28;20263;-76
2023/02/22 10:27:05;;;;;;;16.90;11.10;;;;;;;11.50;86.38;100615.69;5022592;28;20269;-76
2023/02/22 10:29:38;;;;;;;19.73;11.30;;;;;;;11.56;85.86;100617.09;5027452;28;20205;-75
2023/02/22 10:32:06;;;;;;;17.23;10.40;;;;;;;11.60;85.84;100608.78;5028523;28;20234;-76
2023/02/22 10:34:39;;;;;;;14.63;9.97;;;;;;;11.64;85.22;100610.28;5030948;28;20575;-76
2023/02/22 10:37:19;;;;;;;16.60;11.00;;;;;;;11.69;84.92;100612.63;5026413;28;20209;-76
2023/02/22 10:39:48;;;;;;;16.50;10.67;;;;;;;11.71;84.59;100603.56;5022170;28;20217;-76
2023/02/22 10:42:15;;;;;;;17.60;11.43;;;;;;;11.81;85.00;100606.50;5020183;28;20707;-73
2023/02/22 10:44:41;;;;;;;19.10;12.00;;;;;;;11.89;85.39;100601.47;5018055;28;20207;-73
2023/02/22 10:47:11;;;;;;;19.13;10.50;;;;;;;11.98;84.97;100592.81;5020645;28;20706;-73
2023/02/22 10:49:43;;;;;;;15.90;10.03;;;;;;;12.05;84.34;100587.88;5023762;28;20209;-73
2023/02/22 10:52:14;;;;;;;14.93;10.37;;;;;;;12.09;83.25;100579.56;5015915;28;20717;-73
2023/02/22 10:54:45;;;;;;;17.83;10.90;;;;;;;12.14;82.99;100584.59;5019274;28;20692;-72
2023/02/22 10:57:12;;;;;;;16.43;10.33;;;;;;;12.15;82.02;100578.28;5019159;28;20557;-74
2023/02/22 10:59:40;;;;;;;14.10;9.77;;;;;;;12.16;82.02;100575.50;5015345;28;20717;-73
2023/02/22 11:02:19;;;;;;;15.97;10.40;;;;;;;12.21;81.86;100571.63;5017950;28;20221;-73
2023/02/22 11:04:49;;;;;;;13.80;9.63;;;;;;;12.24;81.36;100574.09;5019043;28;20610;-73
2023/02/22 11:07:23;;;;;;;18.30;10.57;;;;;;;12.27;81.79;100574.72;5014673;28;20226;-73
2023/02/22 11:09:53;;;;;;;16.13;9.93;;;;;;;12.34;81.20;100567.16;5018846;28;20589;-73
2023/02/22 11:12:27;;;;;;;15.50;10.27;;;;;;;12.38;80.59;100561.44;5017106;28;20319;-73
2023/02/22 11:14:53;;;;;;;15.87;10.70;;;;;;;12.44;80.65;100561.00;5019355;28;20641;-74
2023/02/22 11:17:31;;;;;;;15.40;10.67;;;;;;;12.50;80.70;100563.25;5017799;28;20665;-73
2023/02/22 11:20:00;;;;;;;12.93;8.60;;;;;;;12.58;80.40;100553.81;5017258;28;20221;-73
2023/02/22 11:22:29;;;;;;;15.47;9.50;;;;;;;12.61;79.70;100554.44;5021469;28;20203;-73
2023/02/22 11:24:59;;;;;;;15.47;9.03;;;;;;;12.69;79.13;100556.56;5011975;28;20213;-73